Time;durP1;ratioP1;P1;durP2;ratioP2;P2;SDS_P1;SDS_P2;PMS_P1;PMS_P2;Temp;Humidity;BMP_temperature;BMP_pressure;BME280_temperature;BME280_humidity;BME280_pressure;Samples;Min_cycle;Max_cycle;Signal;HPM_P1;HPM_P2
2022/11/29 00:06:16;;;;;;;0.60;0.60;;;;;;;4.06;74.42;101193.50;18431234;32;20508;-59
2022/11/29 00:16:20;;;;;;;0.60;0.60;;;;;;;3.67;75.53;101181.69;18431036;32;20137;-59
2022/11/29 00:26:24;;;;;;;0.60;0.60;;;;;;;3.51;75.82;101179.31;18416122;32;20113;-59
2022/11/29 00:36:28;;;;;;;0.68;0.68;;;;;;;3.50;75.42;101173.31;18429809;32;20114;-59
2022/11/29 00:46:31;;;;;;;0.62;0.62;;;;;;;3.14;77.02;101160.69;18429119;32;20508;-59
2022/11/29 00:56:36;;;;;;;1.55;1.45;;;;;;;3.24;77.39;101160.22;18423252;32;205927;-59
2022/11/29 01:06:39;;;;;;;0.60;0.60;;;;;;;2.56;79.88;101160.03;18436659;32;20111;-59
2022/11/29 01:16:44;;;;;;;0.60;0.60;;;;;;;3.19;76.40;101147.16;18436539;32;20085;-59
2022/11/29 01:26:47;;;;;;;0.50;0.50;;;;;;;3.26;76.18;101142.25;18436156;32;20097;-59
2022/11/29 01:36:52;;;;;;;0.93;0.93;;;;;;;3.33;75.10;101139.09;18435787;32;20381;-59
2022/11/29 01:46:56;;;;;;;2.03;1.92;;;;;;;3.19;75.12;101152.31;18435413;32;20115;-59
2022/11/29 01:57:02;;;;;;;0.47;0.47;;;;;;;3.94;71.70;101147.41;18435101;32;20092;-59
2022/11/29 02:07:05;;;;;;;17.58;3.08;;;;;;;4.55;70.10;101139.22;18434318;32;20231;-59
2022/11/29 02:17:18;;;;;;;0.90;0.90;;;;;;;4.50;69.71;101136.47;18434898;32;20094;-59
2022/11/29 02:27:52;;;;;;;0.50;0.50;;;;;;;4.79;69.16;101141.75;18434444;32;20081;-59
2022/11/29 02:38:21;;;;;;;0.70;0.70;;;;;;;3.72;72.76;101150.88;18433770;32;20101;-59
2022/11/29 02:48:40;;;;;;;10.80;5.35;;;;;;;3.76;72.66;101150.19;18433812;32;20119;-58
2022/11/29 02:58:49;;;;;;;0.68;0.65;;;;;;;3.69;72.66;101153.34;18433642;32;20098;-59
2022/11/29 03:08:55;;;;;;;0.60;0.60;;;;;;;3.81;71.93;101164.16;18434322;32;20100;-59
2022/11/29 03:19:05;;;;;;;1.33;1.23;;;;;;;4.26;70.84;101168.38;18431687;32;20089;-59
2022/11/29 03:29:12;;;;;;;1.25;1.23;;;;;;;3.82;72.13;101165.91;18432687;32;20093;-59
2022/11/29 03:39:19;;;;;;;4.50;4.10;;;;;;;3.64;72.10;101176.41;18432746;32;20093;-59
2022/11/29 03:49:26;;;;;;;0.55;0.55;;;;;;;4.20;70.30;101170.75;18432447;32;20108;-59
2022/11/29 03:59:47;;;;;;;0.73;0.73;;;;;;;4.19;70.23;101178.44;18431852;32;20093;-59
2022/11/29 04:10:02;;;;;;;0.53;0.53;;;;;;;4.29;69.97;101184.00;18431354;32;20097;-59
2022/11/29 04:20:41;;;;;;;0.70;0.70;;;;;;;4.27;69.88;101185.66;18430464;32;20103;-59
2022/11/29 04:31:01;;;;;;;3.37;3.08;;;;;;;4.38;69.60;101198.94;18230961;32;20137;-59
2022/11/29 04:41:43;;;;;;;0.80;0.80;;;;;;;4.49;68.81;101195.87;18236296;32;20153;-59
2022/11/29 04:51:53;;;;;;;;;;;;;;;4.34;69.21;101197.09;18047050;32;20118;-59
2022/11/29 05:02:05;;;;;;;0.60;0.60;;;;;;;4.18;69.15;101195.66;18076777;32;19998;-59
2022/11/29 05:12:17;;;;;;;1.90;1.80;;;;;;;4.25;69.12;101196.75;18173818;32;20137;-59
2022/11/29 05:22:25;;;;;;;0.77;0.77;;;;;;;4.30;68.81;101206.44;18240270;32;20109;-59
2022/11/29 05:32:39;;;;;;;2.03;1.92;;;;;;;4.21;69.14;101221.59;18435773;32;20107;-59
2022/11/29 05:42:57;;;;;;;0.95;0.95;;;;;;;3.62;70.70;101224.56;18435868;32;20416;-60
2022/11/29 05:53:08;;;;;;;0.98;0.98;;;;;;;4.05;69.29;101224.44;18435268;32;20353;-59
2022/11/29 06:03:16;;;;;;;1.13;1.13;;;;;;;4.25;68.48;101227.78;18434480;32;20166;-59
2022/11/29 06:13:31;;;;;;;1.98;1.80;;;;;;;4.09;69.25;101232.34;18434567;32;20107;-59
2022/11/29 06:23:51;;;;;;;1.02;1.02;;;;;;;4.26;69.04;101239.88;18434647;32;20133;-59
2022/11/29 06:34:02;;;;;;;2.30;1.87;;;;;;;4.10;69.30;101254.78;18431809;32;20397;-59
2022/11/29 06:44:06;;;;;;;0.60;0.60;;;;;;;4.20;69.16;101248.28;18429740;32;20101;-59
2022/11/29 06:54:19;;;;;;;0.90;0.90;;;;;;;3.92;70.28;101262.72;18431156;32;20108;-59
2022/11/29 07:04:40;;;;;;;0.65;0.65;;;;;;;4.10;69.69;101261.69;18429893;32;20225;-59
2022/11/29 07:14:50;;;;;;;2.20;2.03;;;;;;;2.86;74.73;101266.19;18418058;32;20127;-59
2022/11/29 07:24:58;;;;;;;1.73;1.65;;;;;;;3.15;73.43;101271.72;18428686;32;20170;-59
2022/11/29 07:35:09;;;;;;;0.55;0.55;;;;;;;4.27;69.93;101268.38;18430162;32;20100;-59
2022/11/29 07:45:16;;;;;;;0.70;0.70;;;;;;;4.68;71.79;101262.94;18428313;32;20129;-59
2022/11/29 07:55:21;;;;;;;0.73;0.73;;;;;;;3.13;72.57;101282.78;18426222;32;20116;-59
2022/11/29 08:05:24;;;;;;;1.12;1.10;;;;;;;4.35;69.24;101280.69;18425101;32;20187;-60
2022/11/29 08:15:29;;;;;;;1.05;1.05;;;;;;;4.10;70.10;101284.94;18368390;32;20111;-59
2022/11/29 08:25:32;;;;;;;0.60;0.60;;;;;;;4.25;69.05;101280.34;18362811;32;20395;-59
2022/11/29 08:35:37;;;;;;;0.70;0.70;;;;;;;4.60;68.05;101276.44;18417835;32;20128;-59
2022/11/29 08:45:41;;;;;;;0.60;0.60;;;;;;;3.00;71.88;101283.94;18424927;32;20151;-59
2022/11/29 08:55:47;;;;;;;0.70;0.70;;;;;;;4.19;69.25;101289.56;18425095;32;20116;-60
2022/11/29 09:05:51;;;;;;;0.70;0.70;;;;;;;4.12;68.53;101280.69;18424477;32;20102;-59
2022/11/29 09:15:56;;;;;;;2.15;2.05;;;;;;;3.44;70.91;101292.69;18424476;32;20187;-59
2022/11/29 09:25:59;;;;;;;0.70;0.70;;;;;;;4.39;68.00;101283.44;18422661;32;20145;-59
2022/11/29 09:36:04;;;;;;;0.68;0.68;;;;;;;4.58;67.59;101276.38;18432589;32;20111;-59
2022/11/29 09:46:18;;;;;;;0.70;0.70;;;;;;;4.67;66.62;101279.28;18431897;32;20131;-59
2022/11/29 09:56:29;;;;;;;1.70;1.67;;;;;;;4.77;66.34;101267.56;18431604;32;20093;-59
2022/11/29 10:06:37;;;;;;;0.60;0.60;;;;;;;4.64;66.45;101260.19;18431544;32;20097;-59
2022/11/29 10:16:44;;;;;;;0.82;0.82;;;;;;;4.78;65.79;101258.97;18417473;32;20433;-59
2022/11/29 10:26:47;;;;;;;0.70;0.70;;;;;;;4.83;65.62;101253.97;18428776;32;20097;-59
2022/11/29 10:36:53;;;;;;;2.97;2.42;;;;;;;4.85;65.12;101258.38;18429421;32;20107;-59
2022/11/29 10:46:57;;;;;;;0.70;0.70;;;;;;;4.74;65.75;101241.56;18425469;32;20140;-59
2022/11/29 10:57:02;;;;;;;1.45;1.37;;;;;;;4.59;65.96;101234.16;18432962;32;20098;-59
2022/11/29 11:07:06;;;;;;;0.70;0.70;;;;;;;5.03;65.66;101213.28;18433077;32;20115;-59
2022/11/29 11:17:24;;;;;;;0.73;0.73;;;;;;;4.99;65.51;101206.22;18433024;32;20115;-59
2022/11/29 11:27:33;;;;;;;2.75;1.75;;;;;;;5.38;65.20;101203.16;18433400;32;20385;-59
2022/11/29 11:37:37;;;;;;;0.57;0.57;;;;;;;5.80;63.81;101209.66;18432590;32;20107;-59
2022/11/29 11:47:43;;;;;;;1.27;1.17;;;;;;;5.82;64.08;101212.28;18430744;32;20080;-59
2022/11/29 11:57:48;;;;;;;0.70;0.70;;;;;;;5.90;64.20;101203.03;18431383;32;20460;-59
2022/11/29 12:07:55;;;;;;;0.82;0.82;;;;;;;6.06;63.24;101206.09;18431823;32;20111;-59
2022/11/29 12:18:18;;;;;;;1.10;1.00;;;;;;;6.28;63.11;101199.81;18430522;32;20084;-59
2022/11/29 12:28:24;;;;;;;2.90;2.70;;;;;;;6.15;62.67;101195.12;18429112;32;20182;-59
2022/11/29 12:38:44;;;;;;;1.12;1.00;;;;;;;6.28;62.92;101188.59;18430756;32;20138;-59
2022/11/29 12:48:57;;;;;;;0.70;0.70;;;;;;;6.22;61.52;101190.16;18351693;32;20710;-59
2022/11/29 12:59:15;;;;;;;0.60;0.60;;;;;;;6.18;61.56;101193.53;18385979;32;20494;-59
2022/11/29 13:09:44;;;;;;;0.60;0.60;;;;;;;6.29;61.42;101187.75;18436403;32;20159;-59
2022/11/29 13:19:52;;;;;;;1.52;1.42;;;;;;;6.31;61.36;101181.78;18435676;32;20155;-59
2022/11/29 13:29:56;;;;;;;1.27;1.17;;;;;;;6.56;61.36;101195.41;18436549;32;20649;-59
2022/11/29 13:40:09;;;;;;;2.33;1.23;;;;;;;5.78;63.28;101193.19;18434901;32;20149;-59
2022/11/29 13:50:37;;;;;;;1.45;1.35;;;;;;;6.08;61.87;101183.72;18435707;32;20092;-59
2022/11/29 14:00:50;;;;;;;0.70;0.70;;;;;;;6.11;62.02;101188.97;18429660;32;20112;-59
2022/11/29 14:10:55;;;;;;;1.12;1.12;;;;;;;6.21;61.99;101184.91;18418120;32;20137;-59
2022/11/29 14:20:59;;;;;;;1.60;1.50;;;;;;;6.25;61.57;101190.25;18434489;32;20128;-59
2022/11/29 14:31:04;;;;;;;0.70;0.70;;;;;;;6.30;61.58;101180.00;18434267;32;20697;-59
2022/11/29 14:41:20;;;;;;;0.68;0.68;;;;;;;6.10;61.86;101192.41;18432436;32;20097;-59
2022/11/29 14:51:25;;;;;;;0.50;0.50;;;;;;;5.88;61.97;101191.75;18417676;32;20101;-59
2022/11/29 15:01:30;;;;;;;0.57;0.57;;;;;;;5.64;62.28;101185.00;18367201;32;20705;-59
2022/11/29 15:11:41;;;;;;;2.47;2.37;;;;;;;5.33;62.41;101186.63;18367249;32;20111;-59
2022/11/29 15:21:51;;;;;;;1.43;1.43;;;;;;;5.10;62.49;101189.31;18214367;32;20140;-59
2022/11/29 15:31:56;;;;;;;1.75;1.42;;;;;;;4.76;63.13;101188.22;18032420;32;20109;-59
2022/11/29 15:42:02;;;;;;;0.90;0.90;;;;;;;4.55;63.10;101193.50;18216744;32;20565;-59
2022/11/29 15:52:09;;;;;;;0.60;0.60;;;;;;;4.21;63.41;101194.88;18278221;32;20111;-59
2022/11/29 16:02:18;;;;;;;3.20;1.95;;;;;;;3.89;63.94;101203.19;18423003;32;20093;-59
2022/11/29 16:12:22;;;;;;;0.68;0.68;;;;;;;3.66;64.21;101210.06;18411428;32;20108;-59
2022/11/29 16:22:26;;;;;;;0.80;0.80;;;;;;;3.70;64.15;101201.59;18428422;32;20170;-59
2022/11/29 16:32:31;;;;;;;1.48;1.35;;;;;;;3.65;64.44;101219.50;18424864;32;20159;-59
2022/11/29 16:42:36;;;;;;;1.87;1.77;;;;;;;3.54;65.40;101210.44;18413109;32;20092;-59
2022/11/29 16:52:39;;;;;;;0.65;0.65;;;;;;;3.61;66.09;101207.28;18412194;32;20115;-59
2022/11/29 17:02:45;;;;;;;1.95;1.85;;;;;;;3.79;65.07;101207.13;18410156;32;20101;-59
2022/11/29 17:12:49;;;;;;;3.25;2.78;;;;;;;3.22;66.63;101215.16;18404803;32;20090;-59
2022/11/29 17:22:53;;;;;;;7.25;6.68;;;;;;;3.53;65.37;101232.78;18424117;32;20109;-59
2022/11/29 17:32:56;;;;;;;0.85;0.85;;;;;;;3.25;64.88;101236.81;18421220;32;20103;-59
2022/11/29 17:43:01;;;;;;;4.97;2.70;;;;;;;3.25;64.72;101249.72;18427804;32;20257;-59
2022/11/29 17:53:05;;;;;;;1.40;1.30;;;;;;;3.09;64.88;101260.25;18431087;32;20115;-59
2022/11/29 18:03:10;;;;;;;0.60;0.60;;;;;;;2.96;64.86;101264.88;18432081;32;20119;-59
2022/11/29 18:13:13;;;;;;;0.82;0.82;;;;;;;2.76;65.56;101269.19;18431035;32;20100;-59
2022/11/29 18:23:18;;;;;;;1.48;1.45;;;;;;;2.77;65.27;101271.81;18416970;32;20128;-59
2022/11/29 18:33:22;;;;;;;1.85;1.75;;;;;;;2.96;64.93;101267.44;18416777;32;20108;-59
2022/11/29 18:43:27;;;;;;;0.70;0.70;;;;;;;2.69;66.25;101274.88;18429004;32;20097;-60
2022/11/29 18:53:30;;;;;;;8.35;4.25;;;;;;;2.80;66.00;101254.69;18429150;32;20812;-59
2022/11/29 19:03:37;;;;;;;3.00;2.80;;;;;;;2.91;65.63;101262.09;18416596;32;20547;-59
2022/11/29 19:13:41;;;;;;;1.33;1.27;;;;;;;3.01;65.68;101265.97;18428877;32;20112;-59
2022/11/29 19:23:51;;;;;;;1.17;1.17;;;;;;;2.92;67.17;101281.03;18415599;32;20453;-59
2022/11/29 19:33:57;;;;;;;4.87;3.15;;;;;;;3.21;66.90;101283.97;18430132;32;20156;-59
2022/11/29 19:44:03;;;;;;;9.63;8.75;;;;;;;3.57;66.27;101282.84;18429212;32;20116;-59
2022/11/29 19:54:08;;;;;;;3.20;2.72;;;;;;;3.68;66.78;101278.13;18431510;32;20184;-59
2022/11/29 20:04:15;;;;;;;8.85;8.07;;;;;;;3.81;66.75;101262.28;18430483;32;20085;-59
2022/11/29 20:14:18;;;;;;;1.30;1.30;;;;;;;3.92;67.37;101267.87;18416594;32;20145;-59
2022/11/29 20:24:23;;;;;;;2.50;1.30;;;;;;;3.96;67.85;101264.59;18429850;32;20105;-59
2022/11/29 20:34:27;;;;;;;2.75;2.65;;;;;;;4.08;68.17;101260.72;18430289;32;20459;-59
2022/11/29 20:44:37;;;;;;;3.78;3.47;;;;;;;4.33;67.21;101262.56;18413340;32;20115;-59
2022/11/29 20:54:41;;;;;;;1.45;1.35;;;;;;;4.23;67.60;101260.44;18424030;32;20103;-59
2022/11/29 21:04:46;;;;;;;1.27;1.27;;;;;;;4.01;68.17;101252.75;18428225;32;20085;-59
2022/11/29 21:14:51;;;;;;;1.15;1.15;;;;;;;4.23;67.41;101252.69;18416526;32;20097;-59
2022/11/29 21:25:01;;;;;;;3.37;3.08;;;;;;;4.50;66.73;101247.66;18436584;32;20093;-59
2022/11/29 21:35:05;;;;;;;9.60;4.40;;;;;;;4.29;67.31;101258.97;18433691;32;20433;-59
2022/11/29 21:45:10;;;;;;;3.60;3.40;;;;;;;4.48;66.72;101254.47;18436161;32;20141;-59
2022/11/29 21:55:18;;;;;;;3.95;3.75;;;;;;;4.49;66.99;101263.09;18421244;32;20105;-59
2022/11/29 22:05:22;;;;;;;5.47;1.73;;;;;;;4.38;67.80;101255.81;18436168;32;20108;-59
2022/11/29 22:15:26;;;;;;;3.25;3.03;;;;;;;3.34;71.73;101269.91;18434895;32;20140;-59
2022/11/29 22:25:30;;;;;;;0.70;0.70;;;;;;;4.60;68.65;101245.41;18434067;32;20167;-59
2022/11/29 22:35:33;;;;;;;4.37;3.25;;;;;;;4.18;70.70;101256.78;18434431;32;20111;-59
2022/11/29 22:45:38;;;;;;;1.12;1.02;;;;;;;4.51;69.74;101252.00;18434040;32;20117;-59
2022/11/29 22:55:41;;;;;;;0.90;0.90;;;;;;;4.98;68.53;101241.56;18433318;32;20114;-59
2022/11/29 23:05:45;;;;;;;1.20;1.10;;;;;;;5.16;67.62;101231.78;18419273;32;20105;-59
2022/11/29 23:15:49;;;;;;;2.40;2.30;;;;;;;5.06;68.15;101225.41;18433340;32;20432;-59
2022/11/29 23:25:53;;;;;;;1.60;1.50;;;;;;;5.37;67.08;101229.03;18432469;32;20133;-59
2022/11/29 23:36:01;;;;;;;1.02;1.02;;;;;;;5.39;67.40;101217.88;18432669;32;20105;-59
2022/11/29 23:46:08;;;;;;;0.68;0.68;;;;;;;5.51;66.77;101204.44;18433541;32;20103;-59
2022/11/29 23:56:14;;;;;;;6.82;2.25;;;;;;;5.54;66.80;101206.25;18431918;32;20379;-60
